Santa Paula, CA

8:15 PM PST on January 26, 2015 (GMT -0800)
Santa Paula Airport | Change Station
CLOSE
Current Station
Personal Weather Station
Location: Santa Paula, CA
Elevation: 245 ft
Nearby Weather Stations

Elev 245 ft 34.35 °N, 119.06 °W | Updated 7 minutes ago

Overcast
Overcast
58.3 °F
Feels Like 58.3 °F
N
2.0
Wind Variable Wind from ENE
Gusts 4.0 mph

Today
High -- | Low -- °F
--% Chance of Precip.
Yesterday
High -- | Low -- °F
Precip. -- in
6:57 AM 5:20 PM
Waxing Crescent, 50% visible
Pressure 30.10 in
Visibility 10.0 miles
Clouds Overcast 8000 ft
Dew Point 56 °F
Humidity 91%
Rainfall 0.05 in
Snow Depth Not available.
UV 0 out of 12
Pollen 5.40 out of 12
Air Quality Not available.
Flu Activity Not available.
METAR KCMA 270355Z 06009KT 10SM -RA OVC080 15/11 A3008 RMK AO2 RAE0259B25 SLP193 P0001 T01500111

More Conditions Fewer Conditions

Pressure 30.10 in
Visibility 10.0 miles
Clouds Overcast 8000 ft
Dew Point 56 °F
Humidity 91%
Rainfall 0.05 in
Snow Depth Not available.
UV 0 out of 12
Pollen 5.40 out of 12
Air Quality Not available.
Flu Activity Not available.
METAR KCMA 270355Z 06009KT 10SM -RA OVC080 15/11 A3008 RMK AO2 RAE0259B25 SLP193 P0001 T01500111

More Conditions Fewer Conditions

10-Day Weather Forecast

Almanac

Astronomy

Jan. 26, 2015 Rise Set
Actual Time
Civil Twilight
Nautical Twilight
Astronomical Twilight
Moon
Length of Visible Light
Length of Day
Tomorrow will be .
, % of the Moon is Illuminated

Today's Extremes

State Highs State Lows

Community

WunderPhotos

Upload Photos

1,790,520 photos uploaded!

WunderBlogs® & News

Nearby

Air Quality

  Air Quality AQ Index Pollutant
Not available.

Snow Depth

Station Depth Elevation

Earthquake Activity

City Distance Mag. Time & Date
Minimum magnitude displayed is 2.5.

Coastal Water Temperatures

Place Temperature

Nearby Weather Stations